Time;durP1;ratioP1;P1;durP2;ratioP2;P2;SDS_P1;SDS_P2;PMS_P1;PMS_P2;Temp;Humidity;BMP_temperature;BMP_pressure;BME280_temperature;BME280_humidity;BME280_pressure;Samples;Min_cycle;Max_cycle;Signal;HPM_P1;HPM_P2
2024/03/22 00:00:37;;;;;;;46.17;21.60;;;;;;;-146.27;85.51;43896.84;5082876;28;20024;-74
2024/03/22 00:03:03;;;;;;;56.10;22.40;;;;;;;-146.27;85.99;44008.25;5086744;28;20028;-74
2024/03/22 00:05:28;;;;;;;44.28;18.58;;;;;;;-146.27;85.89;43960.50;5078181;28;20059;-74
2024/03/22 00:07:53;;;;;;;46.00;18.83;;;;;;;-146.27;85.41;43932.66;5088447;28;20085;-74
2024/03/22 00:10:19;;;;;;;48.75;19.55;;;;;;;-146.27;86.96;44016.22;5086224;28;20035;-73
2024/03/22 00:12:44;;;;;;;46.47;19.75;;;;;;;-146.27;86.24;44044.06;5087434;28;20543;-74
2024/03/22 00:15:09;;;;;;;47.13;19.75;;;;;;;-146.27;86.05;44002.28;5090813;28;20491;-73
2024/03/22 00:17:35;;;;;;;42.83;18.27;;;;;;;-146.27;84.88;43936.63;5088123;28;20062;-74
2024/03/22 00:20:00;;;;;;;44.90;18.77;;;;;;;-146.27;85.70;44008.25;5088775;28;20031;-74
2024/03/22 00:22:26;;;;;;;41.20;18.33;;;;;;;-146.27;85.54;43962.50;5081696;28;20484;-74
2024/03/22 00:24:51;;;;;;;49.25;20.05;;;;;;;-146.27;84.79;43976.41;5074687;28;20130;-74
2024/03/22 00:27:17;;;;;;;49.50;19.88;;;;;;;-146.27;86.21;44048.03;5089318;28;20031;-74
2024/03/22 00:29:42;;;;;;;49.42;18.45;;;;;;;-146.27;85.05;44028.16;5089571;28;20462;-73
2024/03/22 00:32:08;;;;;;;51.28;20.42;;;;;;;-146.27;85.69;43960.50;5086172;28;20563;-74
2024/03/22 00:34:34;;;;;;;50.65;18.63;;;;;;;-146.27;85.17;43996.31;5090043;28;20030;-73
2024/03/22 00:37:00;;;;;;;44.63;18.45;;;;;;;-146.27;84.58;43964.50;5090269;28;20491;-74
2024/03/22 00:39:25;;;;;;;50.45;19.50;;;;;;;-146.27;85.99;44075.91;5081818;28;20032;-73
2024/03/22 00:41:50;;;;;;;48.92;19.67;;;;;;;-146.27;86.60;44091.81;5073689;28;20016;-73
2024/03/22 00:44:15;;;;;;;58.33;19.70;;;;;;;-146.27;87.51;44111.72;5068655;28;20024;-73
2024/03/22 00:46:41;;;;;;;52.88;20.02;;;;;;;-146.27;86.44;44065.94;5069609;28;20031;-74
2024/03/22 00:49:06;;;;;;;57.08;19.83;;;;;;;-146.27;87.81;44123.66;5069389;28;20020;-73
2024/03/22 00:51:31;;;;;;;58.10;21.17;;;;;;;-146.27;87.86;44056.00;5070779;28;20423;-73
2024/03/22 00:53:57;;;;;;;50.60;19.52;;;;;;;-146.27;87.69;44044.06;5079190;28;20031;-74
2024/03/22 00:56:22;;;;;;;58.72;19.52;;;;;;;-146.27;87.78;44056.00;5072572;28;20506;-73
2024/03/22 00:58:47;;;;;;;62.92;21.20;;;;;;;-146.27;87.79;44024.16;5073071;28;20035;-71
2024/03/22 01:01:13;;;;;;;52.72;20.88;;;;;;;-146.27;87.08;43996.31;5078526;28;20432;-70
2024/03/22 01:03:38;;;;;;;60.30;22.63;;;;;;;-146.27;88.40;44083.84;5077871;28;20032;-70
2024/03/22 01:06:04;;;;;;;60.70;20.08;;;;;;;-146.27;89.02;44048.03;5087924;28;20111;-71
2024/03/22 01:08:29;;;;;;;58.80;21.67;;;;;;;-146.27;88.29;44024.16;5082270;28;20024;-72
2024/03/22 01:10:54;;;;;;;57.83;21.27;;;;;;;-146.27;87.97;44028.16;5087186;28;20407;-71
2024/03/22 01:13:20;;;;;;;55.22;20.42;;;;;;;-146.27;89.51;44052.03;5083117;28;20055;-71
2024/03/22 01:15:46;;;;;;;55.97;21.85;;;;;;;-146.27;88.39;44028.16;5087914;28;20448;-72
2024/03/22 01:18:11;;;;;;;56.50;21.50;;;;;;;-146.27;87.16;43996.31;5094443;28;20028;-70
2024/03/22 01:20:37;;;;;;;56.17;21.13;;;;;;;-146.27;87.89;44004.28;5083878;28;20450;-72
2024/03/22 01:23:02;;;;;;;50.22;20.00;;;;;;;-146.27;86.85;43966.47;5091683;28;20028;-71
2024/03/22 01:25:28;;;;;;;51.10;20.45;;;;;;;-146.27;89.08;44119.66;5077354;28;20039;-71
2024/03/22 01:27:53;;;;;;;56.50;20.80;;;;;;;-146.27;89.41;44077.88;5089149;28;20103;-71
2024/03/22 01:30:20;;;;;;;59.10;20.73;;;;;;;-146.27;88.43;44004.28;5078249;28;20093;-71
2024/03/22 01:32:45;;;;;;;64.38;22.30;;;;;;;-146.27;87.11;43964.50;5091807;28;20031;-72
2024/03/22 01:35:10;;;;;;;53.97;21.42;;;;;;;-146.27;88.70;44016.22;5088949;28;20032;-72
2024/03/22 01:37:36;;;;;;;50.03;19.60;;;;;;;-146.27;89.13;44014.22;5088847;28;20016;-71
2024/03/22 01:40:02;;;;;;;45.70;18.77;;;;;;;-146.27;88.12;43976.41;5089413;28;20031;-72
2024/03/22 01:42:27;;;;;;;40.22;18.23;;;;;;;-146.27;88.78;43996.31;5081742;28;20016;-71
2024/03/22 01:44:52;;;;;;;40.90;17.42;;;;;;;-146.27;87.65;43974.44;5081497;28;20461;-71
2024/03/22 01:47:18;;;;;;;34.28;15.90;;;;;;;-146.27;88.75;44059.97;5084866;28;20099;-71
2024/03/22 01:49:44;;;;;;;35.63;16.90;;;;;;;-146.27;89.98;44038.09;5090493;28;20026;-71
2024/03/22 01:52:09;;;;;;;34.83;15.63;;;;;;;-146.27;89.24;43964.50;5090695;28;20102;-71
2024/03/22 01:54:34;;;;;;;28.10;14.98;;;;;;;-146.27;87.50;43944.59;5091215;28;20616;-71
2024/03/22 01:57:00;;;;;;;36.20;17.15;;;;;;;-146.27;88.64;43968.47;5085743;28;20016;-71
2024/03/22 01:59:26;;;;;;;31.42;15.68;;;;;;;-146.27;88.83;43984.38;5077862;28;20033;-71
2024/03/22 02:01:51;;;;;;;38.03;16.25;;;;;;;-146.27;88.07;43924.69;5089119;28;20043;-71
2024/03/22 02:04:16;;;;;;;38.33;16.98;;;;;;;-146.27;88.97;43956.53;5084422;28;20426;-71
2024/03/22 02:06:42;;;;;;;33.35;16.20;;;;;;;-146.27;89.26;43974.44;5086006;28;20027;-71
2024/03/22 02:09:09;;;;;;;34.22;16.33;;;;;;;-146.27;88.93;43944.59;5091347;28;20028;-74
2024/03/22 02:11:35;;;;;;;34.00;16.65;;;;;;;-146.27;88.52;43936.63;5088023;28;20557;-73
2024/03/22 02:14:01;;;;;;;39.58;17.02;;;;;;;-146.27;89.02;43884.91;5080963;28;20297;-73
2024/03/22 02:16:26;;;;;;;30.30;16.08;;;;;;;-146.27;89.90;43976.41;5074969;28;20028;-73
2024/03/22 02:18:51;;;;;;;34.60;16.15;;;;;;;-146.27;89.40;43922.72;5080988;28;20020;-74
2024/03/22 02:21:17;;;;;;;39.75;17.77;;;;;;;-146.27;89.40;43908.78;5084290;28;20384;-74
2024/03/22 02:23:42;;;;;;;41.15;16.77;;;;;;;-146.27;88.95;43934.66;5086876;28;20024;-73
2024/03/22 02:26:08;;;;;;;41.72;17.15;;;;;;;-146.27;89.99;43968.47;5085422;28;20044;-73
2024/03/22 02:28:35;;;;;;;34.00;15.50;;;;;;;-146.27;89.26;43922.72;5080283;28;20392;-73
2024/03/22 02:31:02;;;;;;;42.22;15.27;;;;;;;-146.27;90.10;43988.34;5080832;28;20058;-73
2024/03/22 02:33:27;;;;;;;37.70;14.80;;;;;;;-146.27;89.57;43908.78;5086652;28;20119;-74
2024/03/22 02:35:53;;;;;;;37.13;15.57;;;;;;;-146.27;90.62;43916.75;5076980;28;20112;-73
2024/03/22 02:38:19;;;;;;;37.72;15.55;;;;;;;-146.27;90.00;43948.56;5089775;28;20096;-73
2024/03/22 02:40:45;;;;;;;42.05;16.27;;;;;;;-146.27;89.70;43853.06;5082359;28;20483;-73
2024/03/22 02:43:11;;;;;;;35.83;15.45;;;;;;;-146.27;89.62;43855.06;5085933;28;20467;-72
2024/03/22 02:45:36;;;;;;;36.95;15.38;;;;;;;-146.27;89.76;43904.81;5086550;28;20028;-73
2024/03/22 02:48:02;;;;;;;39.53;15.48;;;;;;;-146.27;89.44;43865.00;5076753;28;20039;-73
2024/03/22 02:50:27;;;;;;;32.20;14.90;;;;;;;-146.27;88.86;43835.16;5085365;28;20431;-73
2024/03/22 02:52:53;;;;;;;29.35;14.00;;;;;;;-146.27;88.48;43839.16;5088075;28;20035;-73
2024/03/22 02:55:19;;;;;;;44.05;15.55;;;;;;;-146.27;89.19;43908.78;5087137;28;20052;-73
2024/03/22 02:57:44;;;;;;;33.97;14.45;;;;;;;-146.27;88.40;43869.00;5090454;28;20035;-74
2024/03/22 03:00:10;;;;;;;38.58;15.10;;;;;;;-146.27;88.30;43954.53;5084006;28;20082;-74
2024/03/22 03:02:35;;;;;;;35.55;15.45;;;;;;;-146.27;87.64;43884.91;5087847;28;20088;-73
2024/03/22 03:05:01;;;;;;;42.22;15.25;;;;;;;-146.27;88.09;43896.84;5088643;28;20032;-74
2024/03/22 03:07:29;;;;;;;40.50;14.65;;;;;;;-146.27;87.98;43934.66;5071829;28;20036;-73
2024/03/22 03:09:55;;;;;;;43.45;15.55;;;;;;;-146.27;88.22;43934.66;5088879;28;20024;-74
2024/03/22 03:12:20;;;;;;;29.33;13.48;;;;;;;-146.27;87.54;43863.03;5089541;28;20027;-74
2024/03/22 03:14:45;;;;;;;36.63;15.07;;;;;;;-146.27;88.48;43888.88;5085344;28;20032;-74
2024/03/22 03:17:11;;;;;;;35.35;15.95;;;;;;;-146.27;88.67;43956.53;5081618;28;20025;-74
2024/03/22 03:19:36;;;;;;;46.78;18.27;;;;;;;-146.27;89.15;43916.75;5073384;28;20032;-73
2024/03/22 03:22:02;;;;;;;36.25;16.08;;;;;;;-146.27;88.94;43964.50;5085589;28;20028;-73
2024/03/22 03:24:27;;;;;;;38.17;16.10;;;;;;;-146.27;89.32;43982.38;5089252;28;20028;-73
2024/03/22 03:26:52;;;;;;;38.38;16.52;;;;;;;-146.27;89.13;43878.94;5081231;28;20096;-73
2024/03/22 03:29:18;;;;;;;38.13;16.50;;;;;;;-146.27;90.01;43968.47;5080868;28;20024;-73
2024/03/22 03:31:43;;;;;;;36.05;15.02;;;;;;;-146.27;88.74;43910.78;5084970;28;20036;-73
2024/03/22 03:34:08;;;;;;;41.75;15.80;;;;;;;-146.27;89.26;43912.75;5090130;28;20028;-74
2024/03/22 03:36:34;;;;;;;40.55;14.73;;;;;;;-146.27;89.62;43952.56;5089648;28;20062;-73
2024/03/22 03:38:59;;;;;;;37.55;14.48;;;;;;;-146.27;89.41;43908.78;5089269;28;20110;-73
2024/03/22 03:41:24;;;;;;;31.60;13.88;;;;;;;-146.27;88.36;43861.03;5089616;28;20539;-73
2024/03/22 03:43:50;;;;;;;24.25;12.57;;;;;;;-146.27;88.44;43936.63;5088160;28;20472;-73
2024/03/22 03:46:15;;;;;;;26.00;12.02;;;;;;;-146.27;87.81;43869.00;5079006;28;20032;-73
2024/03/22 03:48:40;;;;;;;29.23;14.35;;;;;;;-146.27;88.18;43924.69;5078816;28;20029;-73
2024/03/22 03:51:06;;;;;;;32.10;12.68;;;;;;;-146.27;88.01;43906.78;5078502;28;20031;-73
2024/03/22 03:53:31;;;;;;;35.42;12.63;;;;;;;-146.27;87.18;43904.81;5087300;28;20055;-73
2024/03/22 03:55:57;;;;;;;29.77;12.18;;;;;;;-146.27;88.51;43936.63;5089258;28;20078;-73
2024/03/22 03:58:22;;;;;;;39.95;12.88;;;;;;;-146.27;88.29;43894.84;5089485;28;20374;-73
2024/03/22 04:00:48;;;;;;;25.48;10.73;;;;;;;-146.27;86.80;43861.03;5089460;28;20476;-73
2024/03/22 04:03:14;;;;;;;30.67;11.82;;;;;;;-146.27;87.85;43948.56;5092894;28;20118;-73
2024/03/22 04:05:39;;;;;;;31.98;12.45;;;;;;;-146.27;87.69;43920.72;5092541;28;20035;-73
2024/03/22 04:08:05;;;;;;;25.70;11.38;;;;;;;-146.27;87.13;43894.84;5091177;28;20035;-74
2024/03/22 04:10:30;;;;;;;32.85;11.45;;;;;;;-146.27;87.27;43884.91;5092874;28;20111;-74
2024/03/22 04:12:55;;;;;;;29.30;11.50;;;;;;;-146.27;87.11;43880.94;5092445;28;20491;-74
2024/03/22 04:15:21;;;;;;;34.33;12.02;;;;;;;-146.27;86.48;43855.06;5093637;28;20353;-74
2024/03/22 04:17:46;;;;;;;36.53;12.43;;;;;;;-146.27;87.46;43972.44;5085835;28;20462;-74
2024/03/22 04:20:11;;;;;;;26.45;11.05;;;;;;;-146.27;87.64;43922.72;5090544;28;20024;-74
2024/03/22 04:22:37;;;;;;;26.33;10.60;;;;;;;-146.27;87.39;43872.97;5092452;28;20116;-74
2024/03/22 04:25:03;;;;;;;29.13;10.52;;;;;;;-146.27;88.24;43920.72;5084914;28;20052;-74
2024/03/22 04:27:28;;;;;;;43.70;11.30;;;;;;;-146.27;88.13;43976.41;5082852;28;20048;-73
2024/03/22 04:29:54;;;;;;;22.92;9.80;;;;;;;-146.27;87.23;43920.72;5093255;28;20479;-73
2024/03/22 04:32:19;;;;;;;28.83;11.02;;;;;;;-146.27;87.43;43932.66;5091694;28;20106;-73
2024/03/22 04:34:44;;;;;;;31.15;10.68;;;;;;;-146.27;86.97;43876.94;5093080;28;20034;-74
2024/03/22 04:37:11;;;;;;;26.75;10.68;;;;;;;-146.27;87.12;43912.75;5091990;28;20035;-74
2024/03/22 04:39:37;;;;;;;30.10;10.30;;;;;;;-146.27;87.81;43912.75;5087782;28;20471;-73
2024/03/22 04:42:03;;;;;;;37.38;12.48;;;;;;;-146.27;87.58;43924.69;5092078;28;20055;-74
2024/03/22 04:44:29;;;;;;;32.65;10.40;;;;;;;-146.27;88.38;43954.53;5091294;28;20419;-74
2024/03/22 04:46:54;;;;;;;37.80;10.75;;;;;;;-146.27;88.78;43974.44;5090994;28;20027;-73
2024/03/22 04:49:20;;;;;;;25.70;10.45;;;;;;;-146.27;88.58;44004.28;5092913;28;20535;-73
2024/03/22 04:51:45;;;;;;;29.67;10.48;;;;;;;-146.27;88.17;43904.81;5092022;28;20031;-74
2024/03/22 04:54:10;;;;;;;34.30;11.27;;;;;;;-146.27;88.31;43912.75;5091049;28;20509;-74
2024/03/22 04:56:36;;;;;;;28.02;11.00;;;;;;;-146.27;87.24;43880.94;5092681;28;20484;-74
2024/03/22 04:59:01;;;;;;;29.83;11.52;;;;;;;-146.27;87.86;43942.59;5093051;28;20038;-74
2024/03/22 05:01:27;;;;;;;34.90;10.50;;;;;;;-146.27;87.87;43982.38;5087305;28;20391;-74
2024/03/22 05:03:52;;;;;;;38.80;10.90;;;;;;;-146.27;87.72;43928.69;5091745;28;20028;-74
2024/03/22 05:06:18;;;;;;;32.03;10.48;;;;;;;-146.27;87.21;43916.75;5092764;28;20347;-74
2024/03/22 05:08:44;;;;;;;26.30;10.82;;;;;;;-146.27;86.71;43956.53;5083534;28;20023;-74
2024/03/22 05:11:09;;;;;;;35.22;10.85;;;;;;;-146.27;87.69;44020.19;5090506;28;20406;-74
2024/03/22 05:13:34;;;;;;;24.48;10.13;;;;;;;-146.27;88.29;43962.50;5091547;28;20379;-74
2024/03/22 05:16:00;;;;;;;35.40;11.32;;;;;;;-146.27;87.94;43896.84;5092816;28;20482;-74
2024/03/22 05:18:25;;;;;;;34.45;11.25;;;;;;;-146.27;87.75;43944.59;5092471;28;20088;-74
2024/03/22 05:20:50;;;;;;;33.42;10.63;;;;;;;-146.27;88.03;44004.28;5091492;28;20399;-73
2024/03/22 05:23:16;;;;;;;30.30;10.13;;;;;;;-146.27;87.80;43978.41;5092659;28;20039;-73
2024/03/22 05:25:42;;;;;;;24.83;9.18;;;;;;;-146.27;87.92;44010.25;5092094;28;20055;-74
2024/03/22 05:28:07;;;;;;;22.73;9.10;;;;;;;-146.27;87.56;43932.66;5091638;28;20419;-74
2024/03/22 05:30:33;;;;;;;27.30;11.45;;;;;;;-146.27;87.50;43960.50;5090053;28;20028;-74
2024/03/22 05:32:58;;;;;;;37.58;10.50;;;;;;;-146.27;87.29;43984.38;5091010;28;20036;-74
2024/03/22 05:35:24;;;;;;;30.70;9.80;;;;;;;-146.27;87.45;44016.22;5091821;28;20111;-73
2024/03/22 05:37:49;;;;;;;30.02;9.90;;;;;;;-146.27;88.10;44016.22;5092152;28;20123;-74
2024/03/22 05:40:15;;;;;;;25.38;9.60;;;;;;;-146.27;86.76;43944.59;5085437;28;20024;-73
2024/03/22 05:42:41;;;;;;;32.17;10.20;;;;;;;-146.27;86.34;44020.19;5086648;28;20384;-74
2024/03/22 05:45:07;;;;;;;16.73;8.43;;;;;;;-146.27;87.51;44040.09;5088246;28;20032;-73
2024/03/22 05:47:33;;;;;;;21.92;9.10;;;;;;;-146.27;87.40;44071.91;5079770;28;20017;-73
2024/03/22 05:49:59;;;;;;;32.42;11.43;;;;;;;-146.27;87.93;44052.03;5081921;28;20563;-72
2024/03/22 05:52:25;;;;;;;29.50;10.60;;;;;;;-146.27;88.02;44036.09;5088131;28;20114;-71
2024/03/22 05:54:51;;;;;;;28.63;9.63;;;;;;;-146.27;87.10;43944.59;5085916;28;20094;-71
2024/03/22 05:57:16;;;;;;;29.15;10.75;;;;;;;-146.27;88.63;44040.09;5089594;28;20119;-70
2024/03/22 05:59:42;;;;;;;28.30;10.55;;;;;;;-146.27;87.71;43992.34;5089709;28;20097;-70
2024/03/22 06:02:15;;;;;;;32.03;11.02;;;;;;;-146.27;87.13;44050.03;5090067;28;20032;-71
2024/03/22 06:04:40;;;;;;;30.70;10.43;;;;;;;-146.27;87.65;43984.38;5085805;28;20103;-71
2024/03/22 06:07:06;;;;;;;34.92;10.80;;;;;;;-146.27;86.15;44040.09;5089385;28;20510;-71
2024/03/22 06:09:37;;;;;;;27.48;9.88;;;;;;;-146.27;86.70;44050.03;5085660;28;20026;-71
2024/03/22 06:12:05;;;;;;;27.38;11.32;;;;;;;-146.27;86.70;44056.00;5091374;28;20153;-71
2024/03/22 06:14:31;;;;;;;39.17;11.80;;;;;;;-146.27;86.66;44151.50;5089393;28;20019;-71
2024/03/22 06:16:57;;;;;;;31.85;11.30;;;;;;;-146.27;87.08;44131.59;5080928;28;20541;-70
2024/03/22 06:19:23;;;;;;;33.70;12.00;;;;;;;-146.27;85.59;44109.72;5083522;28;20024;-71
2024/03/22 06:21:48;;;;;;;30.45;10.18;;;;;;;-146.27;85.96;44143.53;5084009;28;20128;-70
2024/03/22 06:24:14;;;;;;;21.90;10.15;;;;;;;-146.27;86.16;44181.34;5089880;28;20122;-70
2024/03/22 06:26:39;;;;;;;31.85;11.23;;;;;;;-146.27;85.40;44169.41;5082718;28;20507;-72
2024/03/22 06:29:05;;;;;;;32.30;10.60;;;;;;;-146.27;85.15;44171.41;5088661;28;20070;-71
2024/03/22 06:31:31;;;;;;;32.53;10.02;;;;;;;-146.27;85.70;44252.97;5087903;28;20032;-70
2024/03/22 06:34:01;;;;;;;26.02;9.27;;;;;;;-146.27;85.75;44254.97;5090008;28;20033;-70
2024/03/22 06:36:28;;;;;;;25.52;9.65;;;;;;;-146.27;85.37;44262.91;5084227;28;20167;-71
2024/03/22 06:38:53;;;;;;;34.53;9.35;;;;;;;-146.27;84.76;44191.28;5080157;28;20032;-71
2024/03/22 06:41:18;;;;;;;29.80;9.50;;;;;;;-146.27;85.18;44262.91;5085460;28;20049;-70
2024/03/22 06:43:44;;;;;;;29.83;9.88;;;;;;;-146.27;84.99;44310.69;5081578;28;20020;-69
2024/03/22 06:46:10;;;;;;;21.85;7.50;;;;;;;-146.27;85.20;44362.41;5088771;28;20389;-70
2024/03/22 06:48:35;;;;;;;28.70;8.93;;;;;;;-146.27;86.18;44348.47;5090748;28;20024;-71
2024/03/22 06:51:01;;;;;;;28.17;9.32;;;;;;;-146.27;85.07;44316.66;5090290;28;20028;-71
2024/03/22 06:53:27;;;;;;;38.38;8.50;;;;;;;-146.27;84.29;44306.69;5088399;28;20044;-72
2024/03/22 06:55:52;;;;;;;23.35;7.60;;;;;;;-146.27;84.55;44324.59;5098226;28;20149;-70
2024/03/22 06:58:17;;;;;;;30.63;8.65;;;;;;;-146.27;85.24;44374.34;5092470;28;20046;-74
2024/03/22 07:00:43;;;;;;;29.20;7.28;;;;;;;-146.27;84.15;44352.47;5084494;28;20054;-74
2024/03/22 07:03:08;;;;;;;25.38;7.50;;;;;;;-146.27;84.83;44380.31;5093949;28;20055;-74
2024/03/22 07:05:33;;;;;;;22.27;7.28;;;;;;;-146.27;85.56;44420.09;5090210;28;20071;-73
2024/03/22 07:07:59;;;;;;;28.88;7.05;;;;;;;-146.27;85.85;44445.97;5092554;28;20074;-75
2024/03/22 07:10:27;;;;;;;30.90;7.63;;;;;;;-146.27;85.18;44390.25;5081128;28;20403;-74
2024/03/22 07:12:56;;;;;;;20.98;6.90;;;;;;;-146.27;85.86;44418.13;5089898;28;20546;-74
2024/03/22 07:15:23;;;;;;;26.90;7.35;;;;;;;-146.27;87.11;44398.22;5092899;28;20024;-75
2024/03/22 07:17:49;;;;;;;20.77;7.25;;;;;;;-146.27;86.84;44374.34;5085518;28;20036;-73
2024/03/22 07:20:14;;;;;;;26.55;7.35;;;;;;;-146.27;86.96;44362.41;5105108;28;20102;-73
2024/03/22 07:22:39;;;;;;;16.52;6.72;;;;;;;-146.27;88.12;44370.38;5088735;28;20076;-73
2024/03/22 07:25:05;;;;;;;27.15;7.75;;;;;;;-146.27;88.00;44334.56;5086823;28;20051;-73
2024/03/22 07:27:31;;;;;;;36.15;7.88;;;;;;;-146.27;87.71;44358.44;5089770;28;20045;-71
2024/03/22 07:29:57;;;;;;;31.20;7.88;;;;;;;-146.27;89.59;44398.22;5089475;28;20031;-74
2024/03/22 07:32:22;;;;;;;29.73;7.75;;;;;;;-146.27;88.21;44274.84;5086889;28;20111;-74
2024/03/22 07:34:47;;;;;;;18.67;6.57;;;;;;;-146.27;87.28;44270.88;5085547;28;20056;-74
2024/03/22 07:37:13;;;;;;;17.88;7.30;;;;;;;-146.27;87.41;44322.63;5088899;28;20028;-74
2024/03/22 07:39:38;;;;;;;22.60;7.55;;;;;;;-146.27;88.03;44350.47;5089764;28;20066;-73
2024/03/22 07:42:03;;;;;;;22.42;6.70;;;;;;;-146.27;87.95;44338.53;5087468;28;20057;-71
2024/03/22 07:44:29;;;;;;;25.33;6.75;;;;;;;-146.27;87.92;44334.56;5088704;28;20107;-72
2024/03/22 07:46:54;;;;;;;22.08;7.70;;;;;;;-146.27;87.83;44322.63;5087620;28;20131;-72
2024/03/22 07:49:23;;;;;;;23.83;6.88;;;;;;;-146.27;88.58;44378.31;5084216;28;20032;-73
2024/03/22 07:51:48;;;;;;;24.13;7.90;;;;;;;-146.27;88.20;44306.69;5085419;28;20119;-73
2024/03/22 07:54:13;;;;;;;23.63;7.07;;;;;;;-146.27;88.54;44340.53;5089860;28;20110;-73
2024/03/22 07:56:39;;;;;;;28.80;7.72;;;;;;;-146.27;88.84;44318.63;5087890;28;20023;-73
2024/03/22 07:59:04;;;;;;;25.50;7.18;;;;;;;-146.27;90.13;44362.41;5087266;28;20027;-73
2024/03/22 08:01:30;;;;;;;19.95;6.45;;;;;;;-146.27;90.59;44310.69;5088456;28;20460;-73
2024/03/22 08:03:55;;;;;;;27.00;7.50;;;;;;;-146.27;90.58;44270.88;5087400;28;20028;-74
2024/03/22 08:06:21;;;;;;;25.13;7.15;;;;;;;-146.27;90.55;44272.88;5094743;28;20023;-73
2024/03/22 08:08:46;;;;;;;19.83;6.75;;;;;;;-146.27;89.96;44243.03;5095543;28;20024;-73
2024/03/22 08:11:12;;;;;;;20.17;7.32;;;;;;;-146.27;89.86;44247.00;5095254;28;20036;-74
2024/03/22 08:13:38;;;;;;;23.63;6.68;;;;;;;-146.27;90.10;44219.16;5094513;28;20112;-75
2024/03/22 08:16:05;;;;;;;25.80;7.05;;;;;;;-146.27;90.37;44185.31;5096257;28;20368;-73
2024/03/22 08:18:32;;;;;;;21.73;7.93;;;;;;;-146.27;90.45;44219.16;5090974;28;20024;-73
2024/03/22 08:20:57;;;;;;;20.00;6.97;;;;;;;-146.27;90.08;44171.41;5085170;28;20411;-73
2024/03/22 08:23:23;;;;;;;20.00;6.60;;;;;;;-146.27;91.01;44266.91;5087546;28;20028;-72
2024/03/22 08:25:49;;;;;;;24.38;7.60;;;;;;;-146.27;91.10;44213.19;5088121;28;20389;-72
2024/03/22 08:28:15;;;;;;;26.88;7.22;;;;;;;-146.27;90.47;44217.16;5087246;28;20490;-73
2024/03/22 08:30:40;;;;;;;24.42;8.23;;;;;;;-146.27;91.99;44227.09;5092280;28;20024;-73
2024/03/22 08:33:06;;;;;;;33.92;7.93;;;;;;;-146.27;92.32;44187.31;5088625;28;20088;-73
2024/03/22 08:35:31;;;;;;;22.70;6.75;;;;;;;-146.27;93.08;44143.53;5090638;28;20395;-73
2024/03/22 08:37:56;;;;;;;23.63;7.85;;;;;;;-146.27;92.31;44113.69;5094791;28;20056;-74
2024/03/22 08:40:22;;;;;;;29.58;7.53;;;;;;;-146.27;92.52;44139.56;5088117;28;20038;-73
2024/03/22 08:42:48;;;;;;;23.60;7.68;;;;;;;-146.27;92.44;44052.03;5090742;28;20024;-73
2024/03/22 08:45:13;;;;;;;21.27;9.00;;;;;;;-146.27;92.04;44083.84;5084745;28;20082;-73
2024/03/22 08:47:40;;;;;;;20.52;7.30;;;;;;;-146.27;93.17;44107.72;5086665;28;20323;-73
2024/03/22 08:50:06;;;;;;;20.80;7.65;;;;;;;-146.27;92.19;44061.97;5090840;28;20027;-73
2024/03/22 08:52:32;;;;;;;32.80;9.00;;;;;;;-146.27;93.19;44083.84;5090141;28;20059;-73
2024/03/22 08:54:57;;;;;;;27.95;8.40;;;;;;;-146.27;92.50;44010.25;5091506;28;20063;-73
2024/03/22 08:57:23;;;;;;;31.13;8.35;;;;;;;-146.27;92.26;44032.13;5090577;28;20468;-74
2024/03/22 08:59:48;;;;;;;29.38;7.88;;;;;;;-146.27;92.09;43960.50;5092540;28;20030;-74
2024/03/22 09:02:14;;;;;;;22.00;9.02;;;;;;;-146.27;92.28;43992.34;5098671;28;20457;-73
2024/03/22 09:04:39;;;;;;;27.42;8.55;;;;;;;-146.27;93.46;43954.53;5090516;28;20126;-74
2024/03/22 09:07:05;;;;;;;25.55;9.05;;;;;;;-146.27;94.78;44036.09;5093084;28;20118;-72
2024/03/22 09:09:30;;;;;;;28.27;10.18;;;;;;;-146.27;94.41;43865.00;5094083;28;20024;-74
2024/03/22 09:11:56;;;;;;;28.85;10.18;;;;;;;-146.27;94.21;43867.00;5112014;28;20020;-74
2024/03/22 09:14:21;;;;;;;28.92;10.07;;;;;;;-146.27;93.15;43896.84;5108643;28;20532;-73
2024/03/22 09:16:46;;;;;;;23.73;9.15;;;;;;;-146.27;93.22;43821.25;5092940;28;20081;-74
2024/03/22 09:19:12;;;;;;;27.35;8.50;;;;;;;-146.27;92.42;43853.06;5093966;28;20115;-74
2024/03/22 09:21:37;;;;;;;28.33;9.85;;;;;;;-146.27;92.28;43813.28;5096525;28;20028;-74
2024/03/22 09:24:03;;;;;;;25.65;9.38;;;;;;;-146.27;92.74;43900.81;5103555;28;20467;-72
2024/03/22 09:26:28;;;;;;;32.63;8.65;;;;;;;-146.27;92.82;43882.91;5088196;28;20071;-73
2024/03/22 09:28:54;;;;;;;28.70;9.02;;;;;;;-146.27;92.76;43892.88;5098696;28;20538;-72
2024/03/22 09:31:19;;;;;;;23.65;8.40;;;;;;;-146.27;93.49;43819.25;5105711;28;20070;-73
2024/03/22 09:33:45;;;;;;;22.27;8.23;;;;;;;-146.27;93.08;43859.03;5101946;28;20027;-73
2024/03/22 09:36:10;;;;;;;38.50;10.32;;;;;;;-146.27;93.00;43861.03;5105474;27;20258;-72
2024/03/22 09:38:36;;;;;;;33.10;9.05;;;;;;;-146.27;92.91;43819.25;5107834;28;20012;-73
2024/03/22 09:41:01;;;;;;;31.25;9.07;;;;;;;-146.27;92.83;43809.31;5109797;28;20088;-72
2024/03/22 09:43:32;;;;;;;26.85;8.27;;;;;;;-146.27;93.35;43829.19;5105557;28;20089;-72
2024/03/22 09:45:57;;;;;;;25.25;9.48;;;;;;;-146.27;93.93;43869.00;5094465;28;20036;-72
2024/03/22 09:48:23;;;;;;;30.40;9.73;;;;;;;-146.27;93.60;43859.03;5084068;28;20030;-72
2024/03/22 09:50:49;;;;;;;23.98;9.95;;;;;;;-146.27;92.81;43775.50;5089846;28;20031;-72
2024/03/22 09:53:19;;;;;;;38.63;9.90;;;;;;;-146.27;93.23;43841.13;5099174;28;20460;-72
2024/03/22 09:55:46;;;;;;;26.35;10.32;;;;;;;-146.27;93.46;43811.28;5104103;28;20066;-71
2024/03/22 09:58:12;;;;;;;22.88;9.30;;;;;;;-146.27;93.54;43809.31;5102290;28;20105;-72
2024/03/22 10:00:37;;;;;;;26.45;10.27;;;;;;;-146.27;93.65;43813.28;5104344;28;20437;-72
2024/03/22 10:03:04;;;;;;;25.52;10.23;;;;;;;-146.27;94.52;43898.84;5106256;27;20066;-72
2024/03/22 10:05:30;;;;;;;22.27;9.85;;;;;;;-146.27;94.27;43896.84;5096369;28;20024;-72
2024/03/22 10:07:55;;;;;;;24.23;10.05;;;;;;;-146.27;94.54;43783.44;5104670;28;20540;-72
2024/03/22 10:10:21;;;;;;;19.88;9.55;;;;;;;-146.27;94.48;43821.25;5108660;28;20097;-72
2024/03/22 10:12:47;;;;;;;26.52;9.48;;;;;;;-146.27;94.48;43847.09;5099583;28;20031;-72
2024/03/22 10:15:12;;;;;;;22.35;9.18;;;;;;;-146.27;94.41;43779.47;5099768;28;20045;-72
2024/03/22 10:17:39;;;;;;;19.65;9.38;;;;;;;-146.27;94.03;43765.53;5095939;28;20361;-73
2024/03/22 10:20:12;;;;;;;22.33;9.80;;;;;;;-146.27;94.21;43731.72;5104770;28;20020;-72
2024/03/22 10:22:38;;;;;;;25.47;9.53;;;;;;;-146.27;94.71;43743.66;5096609;28;20035;-73
2024/03/22 10:25:06;;;;;;;20.42;9.93;;;;;;;-146.27;94.93;43689.94;5108994;28;20385;-73
2024/03/22 10:27:32;;;;;;;23.48;10.15;;;;;;;-146.27;94.21;43697.91;5099645;28;20035;-72
2024/03/22 10:29:57;;;;;;;19.83;9.57;;;;;;;-146.27;94.50;43674.03;5094481;28;20031;-73
2024/03/22 10:32:23;;;;;;;22.70;9.23;;;;;;;-146.27;94.49;43697.91;5094587;28;20035;-71
2024/03/22 10:34:50;;;;;;;19.02;9.15;;;;;;;-146.27;95.47;43672.03;5095905;28;20111;-73
2024/03/22 10:37:16;;;;;;;27.73;10.55;;;;;;;-146.27;94.86;43638.22;5100080;28;20023;-73
2024/03/22 10:39:42;;;;;;;21.42;10.07;;;;;;;-146.27;95.22;43658.13;5104802;28;20027;-73
2024/03/22 10:42:08;;;;;;;21.02;9.27;;;;;;;-146.27;94.59;43614.34;5097125;28;20541;-74
2024/03/22 10:44:33;;;;;;;21.08;9.60;;;;;;;-146.27;95.03;43598.44;5105221;28;20020;-73
2024/03/22 10:47:02;;;;;;;19.73;9.43;;;;;;;-146.27;95.35;43634.25;5091940;28;20028;-73
2024/03/22 10:49:31;;;;;;;21.73;10.13;;;;;;;-146.27;94.73;43566.59;5102843;28;20471;-73
2024/03/22 10:52:00;;;;;;;23.52;10.02;;;;;;;-146.27;95.06;43606.38;5096784;28;20361;-72
2024/03/22 10:54:31;;;;;;;22.45;10.00;;;;;;;-146.27;96.03;43546.72;5095221;28;20115;-73
2024/03/22 10:56:58;;;;;;;23.00;10.00;;;;;;;-146.27;95.18;43493.00;5104525;28;20035;-72